Archival Weather

NSFA McMurdo Sound

NSFA McMurdo Sound, Antarctica (NZCM)

Report from: Friday, September 23, 2022 2:47 PM UTC
Current time: Sunday, December 4, 2022 10:50 AM UTC

Current weather
Weather history
Weather forecast

Present weatherHaze
Temperature-18.9°C (-2.0°F)
Wind chill-28.2°C (-18.7°F)
Dew point-23.4°C (-10.1°F)
Winds 9 kts (4.6 m/s, 10.4 mph) Vrb
Winds variableWinds variable from East-Northeast (60°) to Southeast (140°)
Visibility1.1 mi. (1.7 km)
Clouds Ceiling: Overcast 1,100 ft. (335 m)
Altimeter28.63 in.Hg (970 mB)
Precip. events Snow ended 1:57 PM
Snow began 1:59 PM
Snow ended 2:23 PM
Snow began 2:33 PM
Snow ended 2:47 PM
Relative humidity67 %
Density altitude-2,765 ft. (-843 m)
Sea-level pressure107.0 kPa (1070 mB, 31.60 in.Hg)
Remarks Fully automated report
System requires maintenance
Special weather observation
Automated weather observing station with precipitation discriminator
Flight conditions Instrument Meteorological Conditions
Raw dataSPECI NZCM 231447Z AUTO 10009KT 060V140 1700 HZ OVC011 M19/M23 A2863 RMK AO2 WSHFT 1414 SNE1357B1359E1423B1433E1447 SLP701 T11891234 $
An error has occurred. This application may no longer respond until reloaded. Reload 🗙